createdAt,value
2018-12-08T00:01:04.470Z,74.85
2018-12-08T00:03:34.640Z,74.20
2018-12-08T00:06:04.131Z,78.70
2018-12-08T00:08:34.647Z,71.75
2018-12-08T00:11:04.153Z,78.70
2018-12-08T00:13:33.593Z,79.37
2018-12-08T00:16:03.077Z,79.90
2018-12-08T00:18:32.666Z,85.72
2018-12-08T00:21:02.145Z,85.77
2018-12-08T00:23:31.591Z,83.85
2018-12-08T00:26:01.066Z,89.92
2018-12-08T00:28:30.414Z,86.50
2018-12-08T00:31:08.712Z,88.33
2018-12-08T00:33:38.200Z,91.82
2018-12-08T00:36:07.827Z,96.97
2018-12-08T00:38:37.204Z,96.45
2018-12-08T00:41:06.725Z,98.15
2018-12-08T00:43:36.546Z,101.95
2018-12-08T00:46:06.146Z,92.95
2018-12-08T00:48:35.529Z,98.20
2018-12-08T00:51:04.857Z,99.75
2018-12-08T00:53:34.410Z,95.47
2018-12-08T00:56:03.892Z,99.85
2018-12-08T00:58:33.330Z,105.67
2018-12-08T01:01:02.749Z,92.57
2018-12-08T01:03:32.793Z,104.58
2018-12-08T01:06:02.274Z,96.72
2018-12-08T01:08:31.783Z,94.47
2018-12-08T01:11:01.232Z,97.20
2018-12-08T01:13:30.565Z,102.22
2018-12-08T01:16:00.206Z,102.02
2018-12-08T01:18:29.793Z,91.55
2018-12-08T01:21:00.423Z,84.35
2018-12-08T01:23:29.910Z,83.95
2018-12-08T01:25:59.429Z,83.07
2018-12-08T01:28:29.166Z,87.05
2018-12-08T01:30:58.773Z,83.52
2018-12-08T01:33:28.327Z,81.40
2018-12-08T01:35:57.783Z,77.45
2018-12-08T01:38:27.249Z,84.70
2018-12-08T01:40:56.736Z,81.42
2018-12-08T01:43:26.226Z,72.37
2018-12-08T01:45:55.667Z,77.20
2018-12-08T01:48:25.188Z,76.45
2018-12-08T01:50:54.586Z,74.00
2018-12-08T01:53:24.092Z,70.55
2018-12-08T01:55:54.208Z,68.97
2018-12-08T01:58:23.940Z,68.07
2018-12-08T02:00:53.343Z,71.90
2018-12-08T02:03:22.878Z,65.20
2018-12-08T02:05:52.319Z,62.80
2018-12-08T02:08:21.833Z,63.17
2018-12-08T02:10:53.212Z,61.85
2018-12-08T02:13:22.799Z,59.65
2018-12-08T02:15:52.360Z,58.48
2018-12-08T02:18:22.021Z,68.60
2018-12-08T02:20:51.313Z,63.52
2018-12-08T02:23:20.762Z,60.98
2018-12-08T02:25:50.196Z,61.28
2018-12-08T02:28:19.602Z,62.98
2018-12-08T02:30:49.017Z,52.78
2018-12-08T02:33:18.486Z,54.50
2018-12-08T02:35:47.825Z,58.52
2018-12-08T02:38:17.370Z,54.70
2018-12-08T02:40:46.864Z,57.03
2018-12-08T02:43:16.323Z,55.50
2018-12-08T02:45:45.746Z,66.42
2018-12-08T02:48:15.249Z,53.20
2018-12-08T02:50:44.646Z,50.43
2018-12-08T02:53:14.050Z,47.73
2018-12-08T02:55:43.401Z,53.48
2018-12-08T02:58:12.961Z,50.70
2018-12-08T03:00:42.353Z,52.00
2018-12-08T03:03:11.857Z,52.62
2018-12-08T03:05:41.364Z,59.27
2018-12-08T03:08:10.726Z,51.83
2018-12-08T03:10:40.373Z,50.15
2018-12-08T03:13:09.877Z,50.45
2018-12-08T03:15:39.388Z,51.58
2018-12-08T03:18:08.895Z,51.77
2018-12-08T03:20:39.370Z,46.25
2018-12-08T03:23:08.929Z,54.30
2018-12-08T03:25:38.301Z,48.70
2018-12-08T03:28:07.939Z,49.20
2018-12-08T03:30:39.944Z,49.08
2018-12-08T03:33:09.620Z,51.25
2018-12-08T03:35:39.003Z,47.93
2018-12-08T03:38:08.504Z,47.50
2018-12-08T03:40:37.934Z,49.10
2018-12-08T03:43:07.512Z,47.25
2018-12-08T03:45:37.026Z,53.30
2018-12-08T03:48:06.523Z,52.40
2018-12-08T03:50:35.858Z,41.40
2018-12-08T03:53:05.355Z,41.70
2018-12-08T03:55:34.792Z,48.30
2018-12-08T03:58:04.243Z,44.73
2018-12-08T04:00:33.881Z,43.00
2018-12-08T04:03:03.577Z,46.20
2018-12-08T04:05:32.978Z,42.35
2018-12-08T04:08:02.567Z,44.13
2018-12-08T04:10:32.089Z,40.12
2018-12-08T04:13:01.617Z,38.95
2018-12-08T04:15:31.310Z,40.00
2018-12-08T04:18:02.051Z,38.73
2018-12-08T04:20:31.628Z,39.92
2018-12-08T04:23:01.057Z,39.13
2018-12-08T04:25:30.555Z,39.35
2018-12-08T04:27:59.932Z,36.85
2018-12-08T04:30:29.382Z,42.48
2018-12-08T04:32:59.051Z,40.25
2018-12-08T04:35:28.515Z,39.50
2018-12-08T04:37:57.913Z,39.55
2018-12-08T04:40:27.344Z,41.25
2018-12-08T04:42:56.761Z,38.78
2018-12-08T04:45:26.091Z,38.55
2018-12-08T04:47:55.575Z,40.80
2018-12-08T04:50:25.176Z,38.53
2018-12-08T04:52:54.560Z,45.20
2018-12-08T04:55:24.096Z,40.95
2018-12-08T04:57:53.684Z,41.90
2018-12-08T05:00:23.026Z,44.05
2018-12-08T05:02:52.431Z,45.90
2018-12-08T05:05:21.821Z,48.33
2018-12-08T05:07:51.198Z,49.88
2018-12-08T05:10:20.707Z,51.53
2018-12-08T05:12:50.559Z,47.05
2018-12-08T05:15:20.120Z,49.83
2018-12-08T05:17:49.726Z,57.95
2018-12-08T05:20:19.336Z,57.13
2018-12-08T05:22:48.756Z,57.03
2018-12-08T05:25:18.237Z,57.08
2018-12-08T05:27:47.753Z,52.70
2018-12-08T05:30:17.124Z,57.45
2018-12-08T05:32:46.609Z,59.77
2018-12-08T05:35:16.171Z,59.18
2018-12-08T05:37:45.627Z,51.83
2018-12-08T05:40:14.924Z,58.75
2018-12-08T05:42:44.407Z,61.10
2018-12-08T05:45:13.975Z,56.00
2018-12-08T05:47:43.696Z,63.52
2018-12-08T05:50:13.292Z,60.40
2018-12-08T05:52:42.808Z,54.23
2018-12-08T05:55:12.308Z,57.10
2018-12-08T05:57:41.647Z,60.95
2018-12-08T06:00:11.104Z,56.30
2018-12-08T06:02:40.646Z,60.80
2018-12-08T06:05:10.926Z,62.98
2018-12-08T06:07:40.590Z,53.15
2018-12-08T06:10:10.042Z,57.35
2018-12-08T06:12:39.571Z,60.65
2018-12-08T06:15:09.158Z,58.10
2018-12-08T06:17:38.526Z,51.45
2018-12-08T06:20:09.217Z,56.20
2018-12-08T06:22:38.790Z,59.48
2018-12-08T06:25:12.325Z,55.70
2018-12-08T06:27:50.574Z,58.42
2018-12-08T06:30:20.048Z,51.65
2018-12-08T06:32:49.436Z,47.93
2018-12-08T06:35:18.921Z,52.90
2018-12-08T06:37:48.342Z,55.38
2018-12-08T06:40:17.878Z,52.25
2018-12-08T06:42:47.305Z,52.45
2018-12-08T06:45:16.709Z,49.75
2018-12-08T06:47:46.181Z,54.65
2018-12-08T06:50:15.606Z,44.45
2018-12-08T06:52:45.134Z,42.23
2018-12-08T06:55:14.762Z,46.95
2018-12-08T06:57:44.361Z,44.75
2018-12-08T07:00:13.981Z,39.35
2018-12-08T07:02:43.429Z,47.58
2018-12-08T07:05:13.705Z,51.88
2018-12-08T07:07:43.085Z,43.02
2018-12-08T07:10:12.580Z,39.73
2018-12-08T07:12:41.996Z,41.23
2018-12-08T07:15:14.593Z,34.15
2018-12-08T07:17:44.076Z,39.38
2018-12-08T07:20:13.453Z,33.00
2018-12-08T07:22:42.881Z,30.02
2018-12-08T07:25:12.276Z,25.37
2018-12-08T07:27:41.764Z,25.48
2018-12-08T07:30:12.774Z,25.55
2018-12-08T07:32:42.236Z,29.12
2018-12-08T07:35:11.711Z,22.65
2018-12-08T07:37:40.998Z,23.02
2018-12-08T07:40:10.536Z,23.05
2018-12-08T07:42:40.976Z,20.88
2018-12-08T07:45:10.371Z,21.57
2018-12-08T07:47:40.012Z,18.80
2018-12-08T07:50:10.943Z,17.17
2018-12-08T07:52:40.548Z,17.27
2018-12-08T07:55:10.989Z,15.28
2018-12-08T07:57:40.752Z,14.73
2018-12-08T08:00:12.095Z,14.45
2018-12-08T08:02:41.535Z,16.07
2018-12-08T08:05:11.229Z,18.73
2018-12-08T08:07:40.811Z,19.07
2018-12-08T08:10:11.134Z,14.00
2018-12-08T08:12:40.614Z,11.85
2018-12-08T08:15:10.988Z,8.40
2018-12-08T08:17:40.443Z,8.10
2018-12-08T08:20:11.170Z,6.00
2018-12-08T08:22:40.666Z,6.00
2018-12-08T08:25:11.670Z,5.33
2018-12-08T08:27:41.181Z,6.70
2018-12-08T08:30:12.702Z,9.65
2018-12-08T08:32:44.347Z,7.53
2018-12-08T08:35:19.222Z,5.53
2018-12-08T08:37:48.789Z,7.55
2018-12-08T08:40:19.551Z,7.33
2018-12-08T08:42:49.411Z,6.83
2018-12-08T08:45:18.991Z,5.58
2018-12-08T08:47:48.611Z,4.78
2018-12-08T08:50:18.030Z,4.87
2018-12-08T08:52:47.497Z,5.00
2018-12-08T08:55:18.178Z,7.87
2018-12-08T08:57:47.545Z,4.37
2018-12-08T09:00:16.970Z,6.47
2018-12-08T09:02:46.476Z,4.67
2018-12-08T09:05:16.076Z,7.87
2018-12-08T09:07:46.051Z,3.55
2018-12-08T09:10:15.337Z,4.33
2018-12-08T09:12:44.875Z,6.17
2018-12-08T09:15:17.276Z,7.33
2018-12-08T09:17:46.852Z,7.87
2018-12-08T09:20:16.551Z,5.03
2018-12-08T09:22:46.014Z,8.93
2018-12-08T09:25:15.495Z,8.43
2018-12-08T09:27:45.053Z,13.08
2018-12-08T09:30:14.455Z,10.15
2018-12-08T09:32:44.210Z,16.62
2018-12-08T09:35:13.774Z,11.73
2018-12-08T09:37:43.214Z,7.37
2018-12-08T09:40:12.599Z,11.53
2018-12-08T09:42:41.976Z,9.53
2018-12-08T09:45:11.411Z,10.98
2018-12-08T09:47:41.011Z,5.62
2018-12-08T09:50:11.101Z,9.15
2018-12-08T09:52:40.660Z,11.18
2018-12-08T09:55:11.122Z,14.85
2018-12-08T09:57:40.672Z,7.58
2018-12-08T10:00:13.124Z,9.45
2018-12-08T10:02:42.598Z,10.35
2018-12-08T10:05:12.263Z,13.60
2018-12-08T10:07:41.872Z,13.28
2018-12-08T10:10:11.194Z,12.80
2018-12-08T10:12:40.752Z,8.45
2018-12-08T10:15:10.203Z,11.65
2018-12-08T10:17:39.773Z,8.73
2018-12-08T10:20:09.184Z,14.20
2018-12-08T10:22:38.873Z,16.12
2018-12-08T10:25:08.214Z,15.05
2018-12-08T10:27:37.673Z,12.55
2018-12-08T10:30:08.384Z,10.30
2018-12-08T10:32:38.334Z,16.77
2018-12-08T10:35:10.957Z,15.08
2018-12-08T10:37:41.032Z,14.25
2018-12-08T10:40:14.372Z,13.58
2018-12-08T10:42:45.075Z,10.80
2018-12-08T10:45:14.749Z,14.13
2018-12-08T10:47:44.329Z,16.77
2018-12-08T10:50:13.870Z,12.63
2018-12-08T10:52:45.241Z,16.65
2018-12-08T10:55:15.731Z,9.53
2018-12-08T10:57:45.245Z,13.13
2018-12-08T11:00:18.951Z,11.63
2018-12-08T11:02:54.193Z,12.95
2018-12-08T11:05:23.599Z,9.03
2018-12-08T11:07:52.962Z,16.17
2018-12-08T11:10:22.425Z,13.35
2018-12-08T11:12:51.899Z,11.75
2018-12-08T11:15:21.410Z,10.05
2018-12-08T11:17:50.865Z,8.33
2018-12-08T11:20:20.334Z,19.27
2018-12-08T11:22:49.805Z,15.95
2018-12-08T11:25:19.354Z,8.13
2018-12-08T11:27:49.933Z,15.50
2018-12-08T11:30:19.383Z,6.55
2018-12-08T11:32:56.530Z,8.00
2018-12-08T11:35:26.168Z,13.00
2018-12-08T11:37:55.669Z,16.87
2018-12-08T11:40:25.104Z,15.55
2018-12-08T11:42:54.582Z,17.55
2018-12-08T11:45:24.060Z,14.07
2018-12-08T11:47:53.386Z,9.48
2018-12-08T11:50:22.770Z,11.75
2018-12-08T11:52:52.247Z,13.83
2018-12-08T11:55:29.960Z,13.98
2018-12-08T11:57:54.765Z,12.75
2018-12-08T12:00:24.147Z,17.67
2018-12-08T12:02:53.516Z,18.98
2018-12-08T12:05:23.208Z,13.58
2018-12-08T12:07:52.594Z,9.00
2018-12-08T12:10:21.994Z,13.78
2018-12-08T12:12:51.505Z,15.28
2018-12-08T12:15:21.118Z,15.65
2018-12-08T12:17:50.891Z,17.95
2018-12-08T12:20:20.284Z,13.38
2018-12-08T12:22:50.205Z,12.28
2018-12-08T12:25:20.026Z,11.03
2018-12-08T12:27:49.734Z,12.68
2018-12-08T12:30:19.665Z,11.03
2018-12-08T12:32:49.044Z,18.55
2018-12-08T12:35:18.585Z,12.53
2018-12-08T12:37:48.088Z,11.65
2018-12-08T12:40:17.664Z,12.00
2018-12-08T12:42:47.050Z,21.55
2018-12-08T12:45:16.450Z,13.58
2018-12-08T12:47:46.850Z,13.05
2018-12-08T12:50:16.295Z,15.60
2018-12-08T12:52:45.784Z,14.78
2018-12-08T12:55:15.084Z,11.63
2018-12-08T12:57:44.623Z,12.70
2018-12-08T13:00:14.276Z,13.30
2018-12-08T13:02:43.832Z,17.27
2018-12-08T13:05:13.245Z,13.95
2018-12-08T13:07:42.846Z,15.18
2018-12-08T13:10:12.466Z,14.90
2018-12-08T13:12:41.872Z,26.07
2018-12-08T13:15:11.264Z,21.57
2018-12-08T13:17:42.865Z,30.45
2018-12-08T13:20:12.425Z,19.35
2018-12-08T13:22:42.020Z,15.05
2018-12-08T13:25:20.338Z,18.05
2018-12-08T13:27:49.845Z,13.28
2018-12-08T13:30:19.323Z,18.40
2018-12-08T13:32:48.850Z,17.48
2018-12-08T13:35:27.011Z,25.15
2018-12-08T13:37:58.106Z,21.97
2018-12-08T13:40:27.741Z,18.90
2018-12-08T13:42:57.670Z,13.88
2018-12-08T13:45:27.180Z,14.87
2018-12-08T13:47:56.754Z,14.83
2018-12-08T13:50:26.225Z,16.07
2018-12-08T13:52:56.358Z,13.90
2018-12-08T13:55:25.865Z,17.82
2018-12-08T13:57:55.330Z,22.45
2018-12-08T14:00:24.985Z,16.75
2018-12-08T14:02:54.483Z,12.35
2018-12-08T14:05:24.970Z,15.75
2018-12-08T14:07:54.525Z,18.40
2018-12-08T14:10:24.115Z,20.27
2018-12-08T14:12:53.827Z,21.52
2018-12-08T14:15:23.209Z,21.23
2018-12-08T14:17:52.629Z,23.22
2018-12-08T14:20:28.825Z,23.85
2018-12-08T14:22:58.505Z,32.00
2018-12-08T14:25:28.026Z,26.37
2018-12-08T14:27:57.498Z,28.42
2018-12-08T14:30:27.010Z,24.45
2018-12-08T14:32:56.441Z,27.37
2018-12-08T14:35:25.978Z,25.35
2018-12-08T14:37:55.593Z,33.92
2018-12-08T14:40:25.071Z,32.50
2018-12-08T14:42:54.660Z,29.70
2018-12-08T14:45:24.107Z,32.98
2018-12-08T14:47:53.566Z,41.00
2018-12-08T14:50:23.061Z,45.73
2018-12-08T14:52:52.695Z,64.32
2018-12-08T14:55:22.103Z,51.95
2018-12-08T14:57:51.786Z,34.43
2018-12-08T15:00:21.384Z,35.43
2018-12-08T15:02:50.905Z,29.02
2018-12-08T15:05:20.508Z,28.02
2018-12-08T15:07:50.296Z,31.50
2018-12-08T15:10:21.808Z,29.63
2018-12-08T15:12:53.495Z,24.72
2018-12-08T15:15:23.846Z,30.35
2018-12-08T15:17:53.346Z,23.55
2018-12-08T15:20:23.066Z,20.15
2018-12-08T15:22:52.653Z,22.45
2018-12-08T15:25:22.086Z,23.07
2018-12-08T15:27:51.745Z,22.87
2018-12-08T15:30:21.378Z,28.30
2018-12-08T15:32:50.885Z,27.27
2018-12-08T15:35:20.599Z,36.63
2018-12-08T15:37:50.192Z,32.33
2018-12-08T15:40:19.825Z,29.00
2018-12-08T15:42:49.415Z,29.27
2018-12-08T15:45:19.024Z,29.52
2018-12-08T15:47:48.548Z,34.00
2018-12-08T15:50:17.927Z,27.35
2018-12-08T15:52:47.450Z,24.75
2018-12-08T15:55:16.799Z,35.90
2018-12-08T15:57:46.350Z,26.05
2018-12-08T16:00:16.265Z,33.70
2018-12-08T16:02:45.987Z,33.10
2018-12-08T16:05:15.469Z,27.95
2018-12-08T16:07:46.873Z,26.68
2018-12-08T16:10:16.450Z,29.52
2018-12-08T16:12:46.046Z,25.57
2018-12-08T16:15:18.411Z,26.07
2018-12-08T16:17:47.926Z,28.75
2018-12-08T16:20:18.739Z,30.63
2018-12-08T16:22:49.116Z,34.43
2018-12-08T16:25:18.586Z,32.13
2018-12-08T16:27:48.279Z,34.50
2018-12-08T16:30:17.737Z,27.10
2018-12-08T16:32:47.321Z,30.60
2018-12-08T16:35:18.766Z,29.85
2018-12-08T16:37:56.708Z,29.18
2018-12-08T16:40:21.641Z,32.65
2018-12-08T16:42:52.745Z,28.77
2018-12-08T16:45:24.138Z,25.90
2018-12-08T16:47:56.689Z,39.00
2018-12-08T16:50:26.310Z,33.73
2018-12-08T16:52:55.885Z,26.70
2018-12-08T16:55:25.335Z,36.35
2018-12-08T16:57:54.826Z,30.05
2018-12-08T17:00:25.493Z,29.77
2018-12-08T17:02:55.187Z,33.58
2018-12-08T17:05:24.571Z,25.30
2018-12-08T17:07:53.974Z,35.60
2018-12-08T17:10:23.906Z,34.65
2018-12-08T17:12:53.531Z,29.20
2018-12-08T17:15:23.043Z,26.05
2018-12-08T17:17:52.646Z,31.27
2018-12-08T17:20:23.707Z,27.20
2018-12-08T17:22:56.511Z,30.08
2018-12-08T17:25:26.152Z,32.77
2018-12-08T17:27:55.571Z,29.33
2018-12-08T17:30:25.051Z,28.37
2018-12-08T17:32:54.867Z,28.57
2018-12-08T17:35:24.358Z,20.23
2018-12-08T17:37:54.029Z,33.85
2018-12-08T17:40:23.818Z,31.25
2018-12-08T17:42:53.228Z,32.73
2018-12-08T17:45:22.714Z,33.78
2018-12-08T17:47:52.328Z,29.07
2018-12-08T17:50:21.923Z,24.92
2018-12-08T17:52:53.994Z,29.48
2018-12-08T17:55:24.378Z,32.78
2018-12-08T17:57:54.115Z,27.03
2018-12-08T18:00:23.697Z,30.83
2018-12-08T18:02:53.213Z,32.93
2018-12-08T18:05:22.880Z,31.10
2018-12-08T18:07:52.466Z,29.25
2018-12-08T18:10:21.853Z,28.27
2018-12-08T18:12:51.366Z,27.43
2018-12-08T18:15:20.951Z,30.80
2018-12-08T18:17:50.502Z,30.23
2018-12-08T18:20:20.067Z,29.17
2018-12-08T18:22:49.672Z,25.10
2018-12-08T18:25:19.996Z,26.27
2018-12-08T18:27:49.527Z,30.93
2018-12-08T18:30:18.931Z,26.70
2018-12-08T18:32:53.111Z,33.70
2018-12-08T18:35:22.531Z,33.03
2018-12-08T18:37:52.049Z,31.42
2018-12-08T18:40:21.640Z,39.07
2018-12-08T18:42:51.173Z,24.87
2018-12-08T18:45:20.744Z,22.75
2018-12-08T18:47:50.578Z,25.10
2018-12-08T18:50:20.135Z,25.00
2018-12-08T18:52:49.669Z,23.35
2018-12-08T18:55:20.338Z,25.97
2018-12-08T18:57:53.416Z,21.35
2018-12-08T19:00:23.014Z,21.93
2018-12-08T19:02:52.500Z,27.55
2018-12-08T19:05:21.870Z,22.30
2018-12-08T19:07:53.294Z,24.30
2018-12-08T19:10:22.774Z,18.65
2018-12-08T19:12:52.269Z,22.70
2018-12-08T19:15:21.966Z,22.75
2018-12-08T19:17:51.326Z,23.73
2018-12-08T19:20:20.890Z,23.92
2018-12-08T19:22:50.280Z,22.00
2018-12-08T19:25:20.000Z,21.85
2018-12-08T19:27:49.570Z,24.30
2018-12-08T19:30:19.001Z,22.47
2018-12-08T19:32:48.512Z,18.17
2018-12-08T19:35:17.966Z,21.17
2018-12-08T19:37:47.442Z,21.17
2018-12-08T19:40:16.749Z,22.47
2018-12-08T19:42:46.440Z,26.10
2018-12-08T19:45:15.922Z,26.82
2018-12-08T19:47:45.593Z,26.05
2018-12-08T19:50:15.178Z,26.30
2018-12-08T19:52:44.784Z,23.62
2018-12-08T19:55:14.272Z,32.33
2018-12-08T19:57:43.758Z,29.05
2018-12-08T20:00:13.593Z,28.77
2018-12-08T20:02:43.455Z,31.87
2018-12-08T20:05:13.162Z,32.80
2018-12-08T20:07:42.649Z,36.15
2018-12-08T20:10:12.227Z,30.45
2018-12-08T20:12:41.743Z,34.77
2018-12-08T20:15:12.608Z,27.98
2018-12-08T20:17:42.249Z,29.42
2018-12-08T20:20:11.791Z,32.38
2018-12-08T20:22:43.079Z,27.77
2018-12-08T20:25:12.481Z,24.40
2018-12-08T20:27:42.025Z,27.40
2018-12-08T20:30:11.668Z,26.15
2018-12-08T20:32:41.139Z,26.73
2018-12-08T20:35:10.545Z,25.32
2018-12-08T20:37:40.079Z,27.40
2018-12-08T20:40:09.469Z,29.83
2018-12-08T20:42:39.163Z,25.20
2018-12-08T20:45:08.681Z,35.13
2018-12-08T20:47:38.260Z,28.52
2018-12-08T20:50:09.688Z,22.40
2018-12-08T20:52:39.205Z,27.05
2018-12-08T20:55:09.048Z,19.35
2018-12-08T20:57:39.505Z,24.50
2018-12-08T21:00:16.068Z,22.80
2018-12-08T21:02:49.540Z,25.05
2018-12-08T21:05:19.020Z,26.12
2018-12-08T21:07:48.643Z,29.12
2018-12-08T21:10:18.240Z,27.07
2018-12-08T21:12:47.662Z,33.60
2018-12-08T21:15:19.125Z,31.77
2018-12-08T21:17:50.987Z,29.15
2018-12-08T21:20:20.567Z,30.25
2018-12-08T21:22:50.046Z,26.55
2018-12-08T21:25:19.587Z,25.23
2018-12-08T21:27:49.187Z,24.43
2018-12-08T21:30:18.906Z,29.43
2018-12-08T21:32:48.369Z,31.23
2018-12-08T21:35:17.898Z,27.95
2018-12-08T21:37:47.506Z,36.05
2018-12-08T21:40:27.669Z,34.57
2018-12-08T21:42:57.266Z,36.33
2018-12-08T21:45:28.054Z,33.40
2018-12-08T21:47:57.411Z,33.30
2018-12-08T21:50:29.222Z,32.95
2018-12-08T21:52:59.825Z,30.67
2018-12-08T21:55:29.287Z,35.63
2018-12-08T21:57:58.758Z,28.95
2018-12-08T22:00:28.255Z,29.02
2018-12-08T22:03:01.929Z,32.38
2018-12-08T22:05:31.395Z,28.40
2018-12-08T22:08:00.807Z,29.55
2018-12-08T22:10:32.181Z,29.33
2018-12-08T22:13:01.707Z,32.07
2018-12-08T22:15:31.059Z,29.00
2018-12-08T22:18:00.483Z,26.80
2018-12-08T22:20:29.863Z,31.45
2018-12-08T22:22:59.336Z,32.50
2018-12-08T22:25:28.899Z,35.75
2018-12-08T22:27:58.469Z,29.63
2018-12-08T22:30:28.074Z,32.83
2018-12-08T22:32:57.559Z,30.85
2018-12-08T22:35:28.414Z,36.23
2018-12-08T22:37:58.015Z,29.45
2018-12-08T22:40:27.512Z,27.03
2018-12-08T22:42:57.012Z,24.47
2018-12-08T22:45:26.536Z,26.65
2018-12-08T22:47:56.175Z,24.20
2018-12-08T22:50:25.620Z,27.50
2018-12-08T22:52:55.031Z,28.57
2018-12-08T22:55:24.470Z,33.42
2018-12-08T22:57:54.272Z,29.92
2018-12-08T23:00:34.495Z,32.42
2018-12-08T23:03:06.122Z,26.17
2018-12-08T23:05:36.109Z,32.60
2018-12-08T23:08:05.602Z,32.47
2018-12-08T23:10:34.879Z,37.07
2018-12-08T23:13:09.863Z,28.15
2018-12-08T23:15:39.331Z,29.25
2018-12-08T23:18:08.762Z,29.12
2018-12-08T23:20:40.502Z,29.95
2018-12-08T23:23:10.114Z,29.82
2018-12-08T23:25:39.834Z,30.15
2018-12-08T23:28:12.304Z,26.97
2018-12-08T23:30:47.705Z,25.07
2018-12-08T23:33:17.940Z,27.70
2018-12-08T23:35:47.394Z,28.17
2018-12-08T23:38:17.977Z,29.23
2018-12-08T23:40:47.681Z,26.60
2018-12-08T23:43:17.160Z,26.40
2018-12-08T23:45:46.631Z,26.07
2018-12-08T23:48:16.323Z,24.67
2018-12-08T23:50:45.623Z,32.35
2018-12-08T23:53:15.150Z,23.40
2018-12-08T23:55:44.636Z,25.05
2018-12-08T23:58:13.992Z,28.27
